createdAt,value
2018-02-19T00:00:37.952Z,100191.52
2018-02-19T00:03:06.500Z,100196.72
2018-02-19T00:05:35.861Z,100194.11
2018-02-19T00:08:04.416Z,100187.15
2018-02-19T00:10:32.978Z,100193.98
2018-02-19T00:13:01.577Z,100193.09
2018-02-19T00:15:30.128Z,100185.45
2018-02-19T00:17:59.452Z,100187.78
2018-02-19T00:20:28.144Z,100183.84
2018-02-19T00:22:56.700Z,100182.83
2018-02-19T00:25:26.045Z,100188.95
2018-02-19T00:27:54.792Z,100182.65
2018-02-19T00:30:24.112Z,100185.13
2018-02-19T00:32:52.669Z,100185.94
2018-02-19T00:35:22.048Z,100183.70
2018-02-19T00:37:50.620Z,100180.34
2018-02-19T00:40:19.173Z,100181.22
2018-02-19T00:42:47.778Z,100184.11
2018-02-19T00:45:16.332Z,100179.48
2018-02-19T00:47:44.887Z,100182.15
2018-02-19T00:50:13.487Z,100184.07
2018-02-19T00:52:42.046Z,100185.04
2018-02-19T00:55:10.600Z,100185.14
2018-02-19T00:57:39.493Z,100179.08
2018-02-19T01:00:08.076Z,100180.38
2018-02-19T01:02:36.633Z,100173.76
2018-02-19T01:05:05.242Z,100178.89
2018-02-19T01:07:33.800Z,100177.36
2018-02-19T01:10:02.373Z,100174.87
2018-02-19T01:12:31.133Z,100174.78
2018-02-19T01:15:00.457Z,100172.30
2018-02-19T01:17:29.008Z,100172.20
2018-02-19T01:19:59.223Z,100179.37
2018-02-19T01:22:27.780Z,100173.41
2018-02-19T01:24:56.339Z,100176.90
2018-02-19T01:27:25.155Z,100175.93
2018-02-19T01:29:53.712Z,100175.78
2018-02-19T01:32:22.272Z,100177.83
2018-02-19T01:34:51.933Z,100177.82
2018-02-19T01:37:20.487Z,100172.64
2018-02-19T01:39:49.106Z,100176.42
2018-02-19T01:42:17.806Z,100179.23
2018-02-19T01:44:46.373Z,100181.69
2018-02-19T01:47:14.940Z,100178.58
2018-02-19T01:50:01.358Z,100183.61
2018-02-19T01:52:29.916Z,100180.53
2018-02-19T01:54:58.472Z,100178.70
2018-02-19T01:57:27.848Z,100181.12
2018-02-19T01:59:57.179Z,100177.89
2018-02-19T02:02:25.732Z,100179.70
2018-02-19T02:04:54.476Z,100180.06
2018-02-19T02:07:23.029Z,100179.04
2018-02-19T02:09:51.576Z,100176.11
2018-02-19T02:12:20.169Z,100178.08
2018-02-19T02:14:48.724Z,100168.93
2018-02-19T02:17:17.273Z,100170.42
2018-02-19T02:19:46.036Z,100176.03
2018-02-19T02:22:15.347Z,100180.95
2018-02-19T02:24:43.904Z,100177.23
2018-02-19T02:27:12.544Z,100181.78
2018-02-19T02:29:41.101Z,100180.81
2018-02-19T02:32:09.657Z,100180.91
2018-02-19T02:34:38.412Z,100182.73
2018-02-19T02:37:06.969Z,100182.00
2018-02-19T02:39:35.524Z,100187.09
2018-02-19T02:42:05.186Z,100186.21
2018-02-19T02:44:33.736Z,100183.95
2018-02-19T02:47:02.293Z,100183.86
2018-02-19T02:49:31.661Z,100182.00
2018-02-19T02:52:00.214Z,100186.56
2018-02-19T02:54:28.765Z,100187.24
2018-02-19T02:56:58.134Z,100187.84
2018-02-19T02:59:26.682Z,100188.64
2018-02-19T03:01:55.234Z,100183.98
2018-02-19T03:04:24.688Z,100187.49
2018-02-19T03:06:53.235Z,100184.70
2018-02-19T03:09:21.796Z,100185.35
2018-02-19T03:11:51.264Z,100184.39
2018-02-19T03:14:19.884Z,100180.91
2018-02-19T03:16:49.197Z,100177.88
2018-02-19T03:19:18.757Z,100179.77
2018-02-19T03:21:47.307Z,100178.05
2018-02-19T03:24:15.864Z,100182.34
2018-02-19T03:26:45.625Z,100177.18
2018-02-19T03:29:14.224Z,100179.44
2018-02-19T03:31:42.780Z,100180.94
2018-02-19T03:34:11.584Z,100178.42
2018-02-19T03:36:40.140Z,100182.59
2018-02-19T03:39:08.709Z,100185.06
2018-02-19T03:41:37.639Z,100188.53
2018-02-19T03:44:06.195Z,100188.91
2018-02-19T03:46:34.776Z,100190.49
2018-02-19T03:49:03.376Z,100187.41
2018-02-19T03:51:31.927Z,100194.54
2018-02-19T03:54:01.246Z,100188.89
2018-02-19T03:56:29.860Z,100197.82
2018-02-19T03:58:58.409Z,100192.75
2018-02-19T04:01:26.960Z,100191.79
2018-02-19T04:03:56.439Z,100200.22
2018-02-19T04:06:24.996Z,100197.02
2018-02-19T04:08:53.549Z,100201.43
2018-02-19T04:11:22.380Z,100200.56
2018-02-19T04:13:50.937Z,100206.41
2018-02-19T04:16:19.489Z,100199.00
2018-02-19T04:18:48.852Z,100196.17
2018-02-19T04:21:17.407Z,100201.28
2018-02-19T04:23:45.967Z,100195.18
2018-02-19T04:26:15.425Z,100202.52
2018-02-19T04:28:43.973Z,100202.07
2018-02-19T04:31:12.520Z,100208.20
2018-02-19T04:33:41.892Z,100201.64
2018-02-19T04:36:10.437Z,100214.03
2018-02-19T04:38:38.984Z,100210.47
2018-02-19T04:41:08.347Z,100208.67
2018-02-19T04:43:36.928Z,100216.51
2018-02-19T04:46:17.278Z,100217.55
2018-02-19T04:48:45.826Z,100215.83
2018-02-19T04:51:15.137Z,100220.00
2018-02-19T04:53:44.678Z,100219.27
2018-02-19T04:56:13.228Z,100225.48
2018-02-19T04:58:41.776Z,100220.23
2018-02-19T05:01:10.385Z,100227.18
2018-02-19T05:03:38.937Z,100229.51
2018-02-19T05:12:52.753Z,100221.25
2018-02-19T05:15:22.068Z,100231.00
2018-02-19T05:17:50.615Z,100227.39
2018-02-19T05:20:20.193Z,100231.96
2018-02-19T05:22:48.744Z,100229.27
2018-02-19T05:25:17.293Z,100234.52
2018-02-19T05:27:45.932Z,100227.16
2018-02-19T05:30:16.928Z,100230.52
2018-02-19T05:32:46.565Z,100237.05
2018-02-19T05:35:15.112Z,100235.41
2018-02-19T05:37:43.662Z,100243.20
2018-02-19T05:40:13.033Z,100243.52
2018-02-19T05:42:41.580Z,100244.63
2018-02-19T05:45:10.146Z,100244.81
2018-02-19T05:47:39.546Z,100254.53
2018-02-19T05:50:08.857Z,100249.36
2018-02-19T05:52:37.577Z,100254.55
2018-02-19T05:55:06.204Z,100255.50
2018-02-19T05:57:35.576Z,100260.92
2018-02-19T06:00:04.372Z,100259.77
2018-02-19T06:02:33.394Z,100262.62
2018-02-19T06:05:02.708Z,100261.47
2018-02-19T06:07:32.021Z,100266.75
2018-02-19T06:10:00.769Z,100269.52
2018-02-19T06:12:29.363Z,100270.53
2018-02-19T06:14:57.916Z,100274.77
2018-02-19T06:17:26.541Z,100270.55
2018-02-19T06:19:55.861Z,100270.63
2018-02-19T06:22:24.425Z,100268.40
2018-02-19T06:24:53.797Z,100275.06
2018-02-19T06:27:22.353Z,100274.77
2018-02-19T06:29:50.921Z,100276.78
2018-02-19T06:32:19.529Z,100273.58
2018-02-19T06:34:48.080Z,100288.84
2018-02-19T06:37:16.633Z,100287.47
2018-02-19T06:39:46.408Z,100292.57
2018-02-19T06:42:14.960Z,100283.97
2018-02-19T06:44:43.518Z,100289.82
2018-02-19T06:47:12.891Z,100291.07
2018-02-19T06:49:41.453Z,100289.55
2018-02-19T06:52:10.004Z,100290.86
2018-02-19T06:54:38.623Z,100292.59
2018-02-19T06:57:07.177Z,100291.95
2018-02-19T06:59:35.734Z,100285.77
2018-02-19T07:02:05.108Z,100290.95
2018-02-19T07:04:33.674Z,100294.19
2018-02-19T07:07:02.228Z,100290.48
2018-02-19T07:09:30.842Z,100291.77
2018-02-19T07:11:59.406Z,100292.75
2018-02-19T07:14:27.984Z,100293.69
2018-02-19T07:16:56.586Z,100291.52
2018-02-19T07:19:25.145Z,100292.32
2018-02-19T07:21:53.697Z,100291.55
2018-02-19T07:24:23.061Z,100283.27
2018-02-19T07:26:51.613Z,100286.93
2018-02-19T07:29:20.170Z,100283.08
2018-02-19T07:31:49.636Z,100283.02
2018-02-19T07:34:18.194Z,100287.41
2018-02-19T07:36:46.749Z,100285.56
2018-02-19T07:39:15.444Z,100288.56
2018-02-19T07:41:44.001Z,100287.59
2018-02-19T07:44:13.359Z,100295.25
2018-02-19T07:46:42.358Z,100296.62
2018-02-19T07:49:10.916Z,100294.41
2018-02-19T07:51:39.473Z,100295.30
2018-02-19T07:54:08.840Z,100291.89
2018-02-19T07:56:37.401Z,100297.11
2018-02-19T07:59:05.952Z,100297.05
2018-02-19T08:01:34.567Z,100291.97
2018-02-19T08:04:03.118Z,100291.48
2018-02-19T08:06:31.668Z,100289.23
2018-02-19T08:09:00.264Z,100291.02
2018-02-19T08:11:29.588Z,100294.59
2018-02-19T08:13:58.137Z,100296.20
2018-02-19T08:16:27.520Z,100291.73
2018-02-19T08:18:56.077Z,100299.78
2018-02-19T08:21:24.629Z,100305.30
2018-02-19T08:23:53.272Z,100303.34
2018-02-19T08:26:21.833Z,100314.79
2018-02-19T08:28:50.418Z,100314.84
2018-02-19T08:31:19.014Z,100316.62
2018-02-19T08:33:47.569Z,100312.67
2018-02-19T08:36:16.124Z,100306.03
2018-02-19T08:38:45.484Z,100309.50
2018-02-19T08:41:14.044Z,100307.94
2018-02-19T08:43:42.596Z,100306.48
2018-02-19T08:46:11.973Z,100313.53
2018-02-19T08:48:40.551Z,100312.91
2018-02-19T08:51:09.107Z,100310.80
2018-02-19T08:53:37.709Z,100308.12
2018-02-19T08:56:06.270Z,100305.94
2018-02-19T08:58:34.821Z,100306.98
2018-02-19T09:01:03.641Z,100307.23
2018-02-19T09:03:32.193Z,100308.63
2018-02-19T09:06:00.752Z,100309.20
2018-02-19T09:08:30.124Z,100302.56
2018-02-19T09:10:58.728Z,100306.86
2018-02-19T09:13:27.276Z,100310.02
2018-02-19T09:15:55.873Z,100310.56
2018-02-19T09:18:24.424Z,100311.17
2018-02-19T09:20:52.978Z,100313.48
2018-02-19T09:23:22.441Z,100317.31
2018-02-19T09:25:50.997Z,100313.94
2018-02-19T09:28:19.552Z,100311.47
2018-02-19T09:30:49.089Z,100310.54
2018-02-19T09:33:17.648Z,100311.14
2018-02-19T09:35:46.201Z,100310.02
2018-02-19T09:38:14.808Z,100311.36
2018-02-19T09:40:44.127Z,100302.72
2018-02-19T09:43:12.681Z,100308.97
2018-02-19T09:45:42.137Z,100311.83
2018-02-19T09:48:10.693Z,100312.16
2018-02-19T09:50:39.250Z,100309.22
2018-02-19T09:53:08.733Z,100304.70
2018-02-19T09:55:37.298Z,100313.13
2018-02-19T09:58:05.855Z,100304.45
2018-02-19T10:00:34.457Z,100304.92
2018-02-19T10:03:03.004Z,100300.58
2018-02-19T10:05:32.336Z,100305.73
2018-02-19T10:08:00.966Z,100305.08
2018-02-19T10:10:29.522Z,100308.95
2018-02-19T10:12:58.081Z,100302.33
2018-02-19T10:15:26.688Z,100308.91
2018-02-19T10:17:55.244Z,100302.47
2018-02-19T10:20:23.800Z,100292.00
2018-02-19T10:22:53.552Z,100291.27
2018-02-19T10:25:22.109Z,100288.22
2018-02-19T10:27:50.657Z,100287.41
2018-02-19T10:30:20.915Z,100288.44
2018-02-19T10:32:49.473Z,100289.86
2018-02-19T10:35:18.792Z,100291.64
2018-02-19T10:37:47.618Z,100282.55
2018-02-19T10:40:16.166Z,100288.98
2018-02-19T10:42:44.719Z,100285.38
2018-02-19T10:45:13.469Z,100281.36
2018-02-19T10:47:42.024Z,100283.15
2018-02-19T10:50:10.579Z,100279.20
2018-02-19T10:52:40.140Z,100286.19
2018-02-19T10:55:09.461Z,100285.21
2018-02-19T10:57:38.026Z,100276.88
2018-02-19T11:00:06.673Z,100273.93
2018-02-19T11:02:35.228Z,100267.90
2018-02-19T11:05:04.557Z,100261.30
2018-02-19T11:07:33.301Z,100274.21
2018-02-19T11:10:01.864Z,100269.23
2018-02-19T11:12:30.421Z,100266.02
2018-02-19T11:14:59.030Z,100269.86
2018-02-19T11:17:27.589Z,100269.55
2018-02-19T11:19:56.151Z,100273.39
2018-02-19T11:22:25.702Z,100273.75
2018-02-19T11:24:54.253Z,100270.66
2018-02-19T11:27:22.833Z,100266.99
2018-02-19T11:29:51.490Z,100268.64
2018-02-19T11:32:20.037Z,100263.42
2018-02-19T11:34:48.628Z,100264.59
2018-02-19T11:37:17.232Z,100266.14
2018-02-19T11:39:45.791Z,100262.44
2018-02-19T11:42:14.345Z,100259.42
2018-02-19T11:44:42.953Z,100260.01
2018-02-19T11:47:11.510Z,100259.46
2018-02-19T11:49:40.069Z,100259.16
2018-02-19T11:52:09.541Z,100250.56
2018-02-19T11:54:38.122Z,100254.21
2018-02-19T11:57:06.691Z,100250.63
2018-02-19T11:59:35.484Z,100258.35
2018-02-19T12:02:04.033Z,100260.78
2018-02-19T12:04:32.593Z,100254.02
2018-02-19T12:07:02.138Z,100256.69
2018-02-19T12:09:30.700Z,100259.36
2018-02-19T12:11:59.257Z,100257.09
2018-02-19T12:14:28.947Z,100264.56
2018-02-19T12:16:57.525Z,100260.97
2018-02-19T12:19:26.150Z,100262.27
2018-02-19T12:21:54.762Z,100265.39
2018-02-19T12:24:23.361Z,100262.55
2018-02-19T12:26:51.921Z,100266.84
2018-02-19T12:29:20.733Z,100268.27
2018-02-19T12:31:49.381Z,100266.09
2018-02-19T12:34:17.933Z,100262.10
2018-02-19T12:36:48.145Z,100265.85
2018-02-19T12:39:16.705Z,100256.48
2018-02-19T12:41:45.265Z,100257.92
2018-02-19T12:44:13.881Z,100261.85
2018-02-19T12:46:42.445Z,100254.57
2018-02-19T12:49:11.004Z,100260.66
2018-02-19T12:51:39.831Z,100252.39
2018-02-19T12:54:08.392Z,100252.52
2018-02-19T12:56:36.958Z,100253.47
2018-02-19T12:59:05.666Z,100248.01
2018-02-19T13:01:34.226Z,100252.12
2018-02-19T13:04:02.781Z,100244.11
2018-02-19T13:06:32.249Z,100247.48
2018-02-19T13:09:00.800Z,100244.80
2018-02-19T13:11:29.368Z,100243.28
2018-02-19T13:13:58.744Z,100238.95
2018-02-19T13:16:27.304Z,100244.42
2018-02-19T13:18:55.856Z,100241.63
2018-02-19T13:21:24.472Z,100243.83
2018-02-19T21:06:47.553Z,100259.28
2018-02-19T21:09:16.100Z,100263.61
2018-02-19T21:11:44.644Z,100262.32
2018-02-19T21:14:13.252Z,100265.34
2018-02-19T21:16:42.569Z,100252.03
2018-02-19T21:21:19.669Z,100241.13
2018-02-19T21:23:48.221Z,100246.34
2018-02-19T21:26:17.545Z,100245.27
2018-02-19T21:28:46.908Z,100240.05
2018-02-19T21:31:15.473Z,100236.85
2018-02-19T21:33:44.028Z,100237.77
2018-02-19T21:36:12.631Z,100237.99
2018-02-19T21:38:41.183Z,100235.88
2018-02-19T21:41:09.732Z,100233.73
2018-02-19T21:43:38.348Z,100232.45
2018-02-19T21:46:06.930Z,100231.97
2018-02-19T21:48:35.512Z,100229.11
2018-02-19T21:51:04.447Z,100241.48
2018-02-19T21:53:33.330Z,100238.99
2018-02-19T21:56:01.896Z,100240.86
2018-02-19T21:58:30.514Z,100239.14
2018-02-19T22:00:59.089Z,100242.50
2018-02-19T22:03:27.645Z,100238.58
2018-02-19T22:05:56.352Z,100239.84
2018-02-19T22:08:24.791Z,100241.90
2018-02-19T22:10:53.996Z,100240.69
2018-02-19T22:13:22.812Z,100247.30
2018-02-19T22:15:51.247Z,100246.16
2018-02-19T22:18:19.686Z,100249.34
2018-02-19T22:20:48.346Z,100242.59
2018-02-19T22:23:16.770Z,100246.01
2018-02-19T22:25:45.197Z,100251.20
2018-02-19T22:28:13.824Z,100250.95
2018-02-19T22:30:42.269Z,100251.14
2018-02-19T22:33:10.703Z,100249.55
2018-02-19T22:35:39.543Z,100249.26
2018-02-19T22:38:07.982Z,100254.00
2018-02-19T22:40:37.187Z,100247.78
2018-02-19T22:43:05.691Z,100253.38
2018-02-19T22:45:34.122Z,100249.00
2018-02-19T22:48:02.555Z,100251.22
2018-02-19T22:50:31.027Z,100254.25
2018-02-19T22:53:00.223Z,100242.75
2018-02-19T22:55:28.655Z,100244.10
2018-02-19T22:57:57.255Z,100247.35
2018-02-19T23:00:25.699Z,100247.66
2018-02-19T23:02:54.126Z,100248.98
2018-02-19T23:05:22.602Z,100244.23
2018-02-19T23:07:51.038Z,100241.23
2018-02-19T23:10:19.471Z,100236.71
2018-02-19T23:12:48.902Z,100235.14
2018-02-19T23:15:17.342Z,100238.05
2018-02-19T23:17:45.772Z,100233.48
2018-02-19T23:20:14.700Z,100238.75
2018-02-19T23:22:43.206Z,100233.76
2018-02-19T23:25:12.402Z,100237.16
2018-02-19T23:27:41.656Z,100235.82
2018-02-19T23:30:10.096Z,100230.29
2018-02-19T23:32:39.295Z,100229.66
2018-02-19T23:35:09.030Z,100225.22
2018-02-19T23:37:37.518Z,100222.89
2018-02-19T23:40:05.954Z,100225.86
2018-02-19T23:42:35.405Z,100222.94
2018-02-19T23:45:04.172Z,100221.52
2018-02-19T23:47:32.608Z,100217.30
2018-02-19T23:50:02.228Z,100221.86
2018-02-19T23:52:30.671Z,100212.50
2018-02-19T23:54:59.136Z,100207.89
2018-02-19T23:57:27.713Z,100204.34
2018-02-19T23:59:56.154Z,100200.07
